Time;durP1;ratioP1;P1;durP2;ratioP2;P2;SDS_P1;SDS_P2;PMS_P1;PMS_P2;Temp;Humidity;BMP_temperature;BMP_pressure;BME280_temperature;BME280_humidity;BME280_pressure;Samples;Min_cycle;Max_cycle;Signal;HPM_P1;HPM_P2
2022/11/06 00:00:28;;;;;;;10.07;3.78;;;19.30;59.80;;;;;;5057786;28;20049;-72
2022/11/06 00:02:57;;;;;;;7.53;3.47;;;19.30;59.80;;;;;;5058985;28;21561;-68
2022/11/06 00:08:07;;;;;;;7.97;3.05;;;19.30;59.80;;;;;;5042299;28;20052;-71
2022/11/06 00:10:33;;;;;;;8.32;3.40;;;19.30;59.70;;;;;;5056353;28;20372;-71
2022/11/06 00:12:59;;;;;;;7.80;3.38;;;19.30;59.60;;;;;;5059035;28;20033;-67
2022/11/06 00:15:25;;;;;;;6.90;3.55;;;19.30;59.60;;;;;;5056846;28;20037;-72
2022/11/06 00:17:50;;;;;;;5.85;3.20;;;19.30;59.60;;;;;;5055078;28;20055;-72
2022/11/06 00:20:16;;;;;;;8.82;3.13;;;19.20;59.50;;;;;;5061638;28;20509;-69
2022/11/06 00:22:42;;;;;;;8.18;3.40;;;19.30;59.50;;;;;;5053370;28;20383;-71
2022/11/06 00:25:08;;;;;;;4.32;2.88;;;19.20;59.40;;;;;;5059898;28;20079;-68
2022/11/06 00:27:38;;;;;;;8.52;3.67;;;19.20;59.30;;;;;;5056571;28;20542;-69
2022/11/06 00:30:05;;;;;;;6.40;3.05;;;19.20;59.30;;;;;;5059562;28;20135;-72
2022/11/06 00:32:31;;;;;;;7.60;3.00;;;19.20;59.40;;;;;;5059545;28;20502;-71
2022/11/06 00:35:00;;;;;;;8.25;3.03;;;19.20;59.30;;;;;;5051768;28;20063;-74
2022/11/06 00:37:25;;;;;;;8.27;2.90;;;19.20;59.30;;;;;;5044836;28;20044;-70
2022/11/06 00:39:51;;;;;;;5.43;2.70;;;19.20;59.30;;;;;;5061097;28;20055;-70
2022/11/06 00:42:16;;;;;;;4.30;2.55;;;19.20;59.20;;;;;;5060211;28;20043;-71
2022/11/06 00:44:42;;;;;;;6.13;2.80;;;19.20;59.20;;;;;;5055469;28;20706;-70
2022/11/06 00:47:08;;;;;;;6.30;2.70;;;19.20;59.20;;;;;;5057809;28;20110;-70
2022/11/06 00:49:33;;;;;;;6.35;2.55;;;19.20;59.20;;;;;;5057137;28;20032;-72
2022/11/06 00:52:00;;;;;;;4.43;2.50;;;19.20;59.10;;;;;;5055475;28;20135;-69
2022/11/06 00:54:25;;;;;;;7.90;2.70;;;19.20;59.20;;;;;;5056780;28;20201;-71
2022/11/06 00:56:51;;;;;;;5.55;2.70;;;19.20;59.10;;;;;;5061625;28;20048;-70
2022/11/06 00:59:16;;;;;;;6.20;2.75;;;19.20;59.20;;;;;;5058480;28;20071;-71
2022/11/06 01:01:43;;;;;;;5.22;2.28;;;19.20;59.10;;;;;;5055714;28;20051;-70
2022/11/06 01:04:14;;;;;;;5.05;2.45;;;19.20;59.10;;;;;;5055951;28;20064;-69
2022/11/06 01:06:43;;;;;;;5.18;2.78;;;19.20;59.00;;;;;;5053319;28;20475;-70
2022/11/06 01:09:10;;;;;;;;;;;19.20;59.00;;;;;;5092510;27;20731;-69
2022/11/06 01:11:38;;;;;;;5.18;2.58;;;19.10;59.00;;;;;;5059618;28;19934;-69
2022/11/06 01:14:05;;;;;;;5.20;2.30;;;19.10;59.00;;;;;;5053478;28;20032;-72
2022/11/06 01:16:31;;;;;;;3.38;2.08;;;19.10;59.00;;;;;;5061645;28;20058;-69
2022/11/06 01:19:00;;;;;;;6.93;2.65;;;19.10;58.90;;;;;;5036623;28;20052;-69
2022/11/06 01:21:45;;;;;;;5.80;2.72;;;19.10;58.90;;;;;;5062437;28;20540;-71
2022/11/06 01:24:14;;;;;;;3.10;1.90;;;19.10;58.80;;;;;;5053494;28;20602;-70
2022/11/06 01:26:39;;;;;;;;;;;19.20;58.90;;;;;;5059143;28;20040;-69
2022/11/06 01:29:07;;;;;;;4.65;2.15;;;19.10;58.80;;;;;;5059668;28;19924;-70
2022/11/06 01:31:33;;;;;;;4.15;2.13;;;19.10;58.90;;;;;;5038889;28;20207;-73
2022/11/06 01:34:04;;;;;;;6.50;2.53;;;19.10;58.90;;;;;;5054251;28;20031;-72
2022/11/06 01:36:31;;;;;;;4.45;1.98;;;19.10;58.80;;;;;;5054030;28;20036;-70
2022/11/06 01:38:59;;;;;;;4.47;2.00;;;19.10;58.80;;;;;;5054788;28;20055;-71
2022/11/06 01:41:30;;;;;;;5.57;2.42;;;19.10;58.80;;;;;;5057303;28;20098;-71
2022/11/06 01:44:01;;;;;;;3.00;2.20;;;19.10;58.80;;;;;;5048376;28;20745;-69
2022/11/06 01:46:30;;;;;;;4.07;2.28;;;19.10;58.80;;;;;;5058728;28;20044;-70
2022/11/06 01:49:00;;;;;;;3.78;1.90;;;19.10;58.80;;;;;;5053451;28;20056;-70
2022/11/06 01:51:28;;;;;;;5.97;1.98;;;19.10;58.80;;;;;;5057352;28;20062;-70
2022/11/06 01:53:54;;;;;;;3.05;2.25;;;19.10;58.70;;;;;;5050971;28;20566;-72
2022/11/06 01:56:21;;;;;;;3.88;2.10;;;19.10;58.80;;;;;;5053243;28;20040;-70
2022/11/06 01:58:50;;;;;;;7.60;1.80;;;19.10;58.70;;;;;;5059094;28;20032;-70
2022/11/06 02:01:16;;;;;;;4.35;2.03;;;19.10;58.80;;;;;;5054430;28;20106;-70
2022/11/06 02:03:50;;;;;;;4.35;2.10;;;19.10;58.70;;;;;;5048687;28;20049;-70
2022/11/06 02:06:16;;;;;;;3.67;2.15;;;19.10;58.70;;;;;;5051251;28;20075;-72
2022/11/06 02:08:42;;;;;;;4.32;2.20;;;19.10;58.70;;;;;;5056018;28;20123;-71
2022/11/06 02:11:07;;;;;;;2.70;1.90;;;19.10;58.70;;;;;;5055776;28;20544;-68
2022/11/06 02:14:05;;;;;;;2.53;1.83;;;19.10;58.60;;;;;;5055137;28;20469;-68
2022/11/06 02:17:06;;;;;;;2.78;1.88;;;19.10;58.60;;;;;;5055927;28;20048;-69
2022/11/06 02:19:59;;;;;;;5.25;2.30;;;19.10;58.70;;;;;;4982677;28;20121;-70
2022/11/06 02:22:52;;;;;;;4.53;2.08;;;19.10;58.60;;;;;;5036797;28;20112;-70
2022/11/06 02:25:48;;;;;;;3.70;2.00;;;19.10;58.60;;;;;;5057258;28;20060;-68
2022/11/06 02:28:20;;;;;;;2.83;1.77;;;19.10;58.60;;;;;;5087523;28;20428;-68
2022/11/06 02:30:48;;;;;;;6.10;2.22;;;19.10;58.60;;;;;;5036926;28;20049;-71
2022/11/06 02:33:27;;;;;;;3.75;2.08;;;19.00;58.50;;;;;;5061903;28;20104;-70
2022/11/06 02:36:06;;;;;;;4.78;2.10;;;19.10;58.60;;;;;;5052671;28;20595;-70
2022/11/06 02:38:42;;;;;;;3.38;1.90;;;19.10;58.50;;;;;;5054271;28;20062;-69
2022/11/06 02:41:15;;;;;;;4.85;1.70;;;19.10;58.50;;;;;;5056031;28;20107;-73
2022/11/06 02:43:49;;;;;;;4.32;1.88;;;19.10;58.50;;;;;;5054028;28;20503;-69
2022/11/06 02:46:25;;;;;;;4.43;2.08;;;19.10;58.40;;;;;;5055745;28;20079;-69
2022/11/06 02:49:07;;;;;;;4.25;2.17;;;19.10;58.40;;;;;;5053323;28;20120;-67
2022/11/06 02:51:38;;;;;;;4.53;1.92;;;19.10;58.40;;;;;;5055913;28;20033;-70
2022/11/06 02:54:06;;;;;;;2.78;1.58;;;19.10;58.40;;;;;;5065160;28;20518;-68
2022/11/06 02:56:41;;;;;;;2.72;1.80;;;19.00;58.40;;;;;;5060848;28;20044;-72
2022/11/06 02:59:17;;;;;;;3.53;1.80;;;19.00;58.30;;;;;;5057113;28;20032;-70
2022/11/06 03:01:50;;;;;;;2.90;2.00;;;19.10;58.30;;;;;;5057075;28;20143;-72
2022/11/06 03:04:46;;;;;;;4.32;1.95;;;19.00;58.30;;;;;;5061645;28;20052;-72
2022/11/06 03:07:42;;;;;;;3.28;1.88;;;19.10;58.40;;;;;;5061704;28;20056;-70
2022/11/06 03:10:09;;;;;;;3.50;1.83;;;19.00;58.30;;;;;;5058554;28;20056;-71
2022/11/06 03:12:51;;;;;;;2.90;1.73;;;19.00;58.30;;;;;;5057997;28;20032;-70
2022/11/06 03:15:42;;;;;;;4.35;1.73;;;19.10;58.30;;;;;;5057607;28;20459;-70
2022/11/06 03:18:12;;;;;;;1.75;1.38;;;19.00;58.30;;;;;;5058880;28;20056;-71
2022/11/06 03:21:11;;;;;;;3.97;1.88;;;19.00;58.40;;;;;;5059091;28;20052;-70
2022/11/06 03:23:55;;;;;;;3.58;1.90;;;19.00;58.20;;;;;;5055677;28;20055;-70
2022/11/06 03:26:37;;;;;;;4.05;1.75;;;19.00;58.20;;;;;;5062515;28;20047;-71
2022/11/06 03:29:09;;;;;;;2.70;1.80;;;19.00;58.20;;;;;;5059716;28;20048;-71
2022/11/06 03:32:00;;;;;;;3.95;1.60;;;19.00;58.20;;;;;;5058503;28;20526;-71
2022/11/06 03:34:34;;;;;;;4.35;1.80;;;19.00;58.20;;;;;;5055460;28;20136;-70
2022/11/06 03:37:09;;;;;;;3.83;1.60;;;19.00;58.20;;;;;;5063138;28;20855;-70
2022/11/06 03:39:42;;;;;;;3.13;1.48;;;19.00;58.10;;;;;;5062589;28;20062;-73
2022/11/06 03:42:12;;;;;;;3.75;2.00;;;19.00;58.20;;;;;;5061796;28;20066;-70
2022/11/06 03:44:43;;;;;;;3.22;1.40;;;19.00;58.10;;;;;;5055977;28;20139;-69
2022/11/06 03:47:19;;;;;;;4.53;1.83;;;19.10;58.20;;;;;;5060744;28;20409;-71
2022/11/06 03:49:59;;;;;;;2.53;1.52;;;19.10;58.20;;;;;;5083751;27;20052;-70
2022/11/06 03:52:54;;;;;;;4.47;2.00;;;19.00;58.10;;;;;;5062350;28;20060;-71
2022/11/06 03:55:26;;;;;;;3.10;1.80;;;19.00;58.20;;;;;;5055221;28;20060;-72
2022/11/06 03:57:57;;;;;;;3.33;1.83;;;19.00;58.10;;;;;;5061662;28;20060;-69
2022/11/06 04:00:23;;;;;;;3.22;1.60;;;19.00;58.10;;;;;;5086751;27;20095;-69
2022/11/06 04:03:06;;;;;;;3.10;1.60;;;19.10;58.20;;;;;;5055656;28;20044;-71
2022/11/06 04:05:41;;;;;;;6.40;1.98;;;19.00;58.10;;;;;;5056237;28;20135;-69
2022/11/06 04:14:03;;;;;;;3.80;1.83;;;19.00;58.10;;;;;;5052125;28;20052;-70
2022/11/06 04:16:36;;;;;;;3.05;1.50;;;19.00;58.90;;;;;;5057707;28;20060;-71
2022/11/06 04:19:02;;;;;;;2.75;1.40;;;19.00;58.20;;;;;;5056215;28;20040;-70
2022/11/06 04:21:31;;;;;;;3.15;1.63;;;19.00;58.10;;;;;;5061688;28;20040;-71
2022/11/06 04:27:07;;;;;;;2.85;1.60;;;19.00;58.20;;;;;;5053838;28;20143;-71
2022/11/06 04:30:06;;;;;;;3.92;1.58;;;19.00;58.20;;;;;;5065892;28;20045;-70
2022/11/06 04:32:45;;;;;;;4.85;1.63;;;19.00;58.20;;;;;;5084780;27;20053;-71
2022/11/06 04:35:20;;;;;;;3.42;1.60;;;19.00;58.20;;;;;;5071516;28;20044;-71
2022/11/06 04:38:22;;;;;;;2.88;1.40;;;19.00;58.30;;;;;;5037035;28;20131;-69
2022/11/06 04:40:53;;;;;;;3.05;1.70;;;19.00;58.20;;;;;;5050897;28;20506;-72
2022/11/06 04:43:39;;;;;;;3.78;1.63;;;19.00;58.30;;;;;;5041010;28;20052;-71
2022/11/06 04:46:07;;;;;;;3.03;1.77;;;19.00;58.20;;;;;;5048697;28;20032;-70
2022/11/06 04:48:33;;;;;;;3.45;1.67;;;19.00;58.30;;;;;;5061376;28;20113;-70
2022/11/06 04:51:02;;;;;;;3.08;1.70;;;19.00;58.20;;;;;;5052432;28;20048;-69
2022/11/06 04:53:29;;;;;;;3.67;1.67;;;18.90;58.20;;;;;;5084500;28;20078;-71
2022/11/06 04:56:00;;;;;;;5.28;1.60;;;19.00;58.20;;;;;;5056153;28;20762;-69
2022/11/06 04:58:26;;;;;;;4.13;1.73;;;19.00;58.20;;;;;;5055180;28;20486;-70
2022/11/06 05:00:52;;;;;;;3.85;1.45;;;19.00;58.20;;;;;;5058313;28;20033;-73
2022/11/06 05:03:17;;;;;;;2.45;1.48;;;19.00;58.20;;;;;;5056051;28;20047;-71
2022/11/06 05:05:43;;;;;;;3.38;1.60;;;19.00;58.20;;;;;;5056902;28;22285;-74
2022/11/06 05:08:14;;;;;;;3.35;1.60;;;19.00;58.20;;;;;;5059343;28;20063;-72
2022/11/06 05:10:40;;;;;;;2.58;1.38;;;19.00;58.20;;;;;;5053009;28;20123;-69
2022/11/06 05:13:06;;;;;;;3.35;1.58;;;19.00;58.20;;;;;;5056006;28;20114;-68
2022/11/06 05:15:31;;;;;;;2.50;1.35;;;19.00;58.20;;;;;;5055920;28;20074;-72
2022/11/06 05:17:57;;;;;;;3.58;1.45;;;19.00;58.20;;;;;;5054687;28;20098;-71
2022/11/06 05:20:23;;;;;;;3.25;1.70;;;19.00;58.20;;;;;;5053370;28;20128;-70
2022/11/06 05:22:59;;;;;;;1.88;1.52;;;19.00;58.20;;;;;;5039219;28;20352;-69
2022/11/06 05:25:27;;;;;;;4.68;1.55;;;18.90;58.10;;;;;;5056312;28;20135;-69
2022/11/06 05:27:53;;;;;;;3.45;1.45;;;19.00;58.20;;;;;;5057066;28;20123;-71
2022/11/06 05:30:18;;;;;;;1.80;1.30;;;19.00;58.20;;;;;;5057400;28;20155;-71
2022/11/06 05:32:44;;;;;;;4.20;1.50;;;19.00;58.20;;;;;;5045408;28;20040;-72
2022/11/06 05:35:09;;;;;;;3.70;1.52;;;19.00;58.20;;;;;;5065245;28;20048;-74
2022/11/06 05:37:35;;;;;;;3.65;1.63;;;19.00;58.30;;;;;;5056906;28;20122;-68
2022/11/06 05:40:00;;;;;;;4.03;1.40;;;19.00;58.20;;;;;;5058474;28;20044;-73
2022/11/06 05:42:26;;;;;;;2.63;1.50;;;19.00;58.20;;;;;;5052940;28;20694;-73
2022/11/06 05:44:51;;;;;;;2.28;1.40;;;18.90;58.10;;;;;;5053406;28;20112;-70
2022/11/06 05:47:17;;;;;;;4.32;1.65;;;18.90;58.20;;;;;;5085764;28;20094;-70
2022/11/06 05:49:43;;;;;;;3.75;1.45;;;18.90;58.20;;;;;;5054297;28;20043;-73
2022/11/06 05:52:08;;;;;;;1.70;1.20;;;18.90;58.10;;;;;;5061769;28;20048;-72
2022/11/06 05:54:34;;;;;;;2.20;1.58;;;18.90;58.00;;;;;;5054810;28;20039;-72
2022/11/06 05:56:59;;;;;;;2.13;1.40;;;19.00;58.10;;;;;;5055626;28;20372;-72
2022/11/06 05:59:25;;;;;;;2.53;1.50;;;18.90;58.10;;;;;;5054677;28;20048;-72
2022/11/06 06:01:50;;;;;;;2.20;1.00;;;18.90;58.00;;;;;;5052769;28;20062;-70
2022/11/06 06:04:16;;;;;;;2.25;1.40;;;18.90;58.80;;;;;;5064711;28;20125;-72
2022/11/06 06:06:42;;;;;;;3.05;1.50;;;18.90;58.00;;;;;;5054513;28;20038;-69
2022/11/06 06:09:07;;;;;;;2.42;1.20;;;19.00;58.10;;;;;;5058297;28;20648;-70
2022/11/06 06:11:33;;;;;;;1.85;1.30;;;18.90;58.00;;;;;;5061552;28;20159;-69
2022/11/06 06:13:59;;;;;;;3.50;1.50;;;18.90;58.00;;;;;;5052148;28;20080;-67
2022/11/06 06:16:25;;;;;;;2.33;1.50;;;18.90;58.00;;;;;;5058934;28;20077;-71
2022/11/06 06:18:50;;;;;;;3.40;1.58;;;18.90;58.00;;;;;;5050862;28;20045;-70
2022/11/06 06:21:16;;;;;;;2.60;1.20;;;18.90;58.00;;;;;;5052285;28;20052;-71
2022/11/06 06:23:42;;;;;;;2.47;1.35;;;18.90;58.00;;;;;;5056785;28;20436;-70
2022/11/06 06:26:08;;;;;;;2.92;1.33;;;18.90;58.00;;;;;;5052514;28;20032;-71
2022/11/06 06:28:34;;;;;;;2.65;1.40;;;18.90;58.80;;;;;;5061671;28;20048;-71
2022/11/06 06:31:05;;;;;;;2.03;1.25;;;19.00;58.10;;;;;;5057608;28;20052;-71
2022/11/06 06:33:31;;;;;;;3.13;1.40;;;18.90;58.80;;;;;;5055519;28;20155;-73
2022/11/06 06:35:56;;;;;;;2.35;1.40;;;18.90;58.00;;;;;;5063437;28;21069;-73
2022/11/06 06:38:22;;;;;;;3.95;1.52;;;18.90;58.00;;;;;;5058182;28;20056;-72
2022/11/06 06:40:48;;;;;;;2.63;1.30;;;19.00;58.10;;;;;;5056998;28;20880;-71
2022/11/06 06:43:13;;;;;;;2.28;1.40;;;18.90;58.00;;;;;;5058897;28;20078;-72
2022/11/06 06:45:39;;;;;;;4.65;1.77;;;18.90;58.00;;;;;;5059055;28;20115;-72
2022/11/06 06:48:05;;;;;;;3.03;1.42;;;18.90;58.00;;;;;;5060839;28;20059;-71
2022/11/06 06:50:31;;;;;;;2.88;1.35;;;18.90;58.00;;;;;;5056019;28;20068;-70
2022/11/06 06:52:58;;;;;;;3.63;1.50;;;18.90;58.00;;;;;;5057950;28;20045;-70
2022/11/06 06:55:24;;;;;;;1.63;1.25;;;18.90;58.00;;;;;;5061653;28;20072;-72
2022/11/06 06:57:58;;;;;;;4.43;1.20;;;18.90;58.00;;;;;;5053811;28;20048;-69
2022/11/06 07:00:24;;;;;;;3.47;1.48;;;18.90;58.00;;;;;;5061256;28;20047;-72
2022/11/06 07:02:53;;;;;;;1.92;1.30;;;18.90;58.00;;;;;;5060311;28;20040;-72
2022/11/06 07:05:19;;;;;;;2.47;1.40;;;18.90;58.00;;;;;;5070064;28;20792;-67
2022/11/06 07:07:45;;;;;;;2.90;1.30;;;18.90;58.00;;;;;;5061554;28;20024;-71
2022/11/06 07:10:10;;;;;;;3.67;1.30;;;19.00;58.10;;;;;;5058521;28;20039;-70
2022/11/06 07:12:39;;;;;;;2.13;1.42;;;18.90;58.00;;;;;;5054240;28;20045;-69
2022/11/06 07:15:05;;;;;;;4.13;1.65;;;18.90;58.00;;;;;;5087518;27;20048;-71
2022/11/06 07:17:31;;;;;;;1.90;1.25;;;18.90;58.00;;;;;;5057919;28;20040;-73
2022/11/06 07:19:57;;;;;;;4.65;1.50;;;18.90;58.00;;;;;;5058020;28;20066;-71
2022/11/06 07:22:25;;;;;;;4.47;1.38;;;18.90;58.10;;;;;;5080898;28;21769;-70
2022/11/06 07:24:52;;;;;;;4.85;1.17;;;18.90;58.10;;;;;;5055631;28;20173;-69
2022/11/06 07:27:18;;;;;;;2.65;1.50;;;18.90;58.20;;;;;;5059844;28;20215;-72
2022/11/06 07:29:43;;;;;;;4.00;1.50;;;18.90;58.20;;;;;;5038871;28;20440;-69
2022/11/06 07:32:09;;;;;;;2.38;1.27;;;18.90;58.30;;;;;;5059313;28;20063;-71
2022/11/06 07:34:37;;;;;;;3.40;1.38;;;18.90;58.40;;;;;;5056617;28;20036;-70
2022/11/06 07:37:04;;;;;;;8.50;1.42;;;18.90;58.60;;;;;;5061266;28;20071;-68
2022/11/06 07:39:29;;;;;;;1.98;1.40;;;18.90;58.60;;;;;;5059876;28;20442;-69
2022/11/06 07:41:55;;;;;;;2.92;1.45;;;18.90;58.60;;;;;;5051181;28;20056;-70
2022/11/06 07:44:21;;;;;;;5.15;1.27;;;18.90;58.60;;;;;;5054436;28;20058;-69
2022/11/06 07:46:46;;;;;;;3.38;1.58;;;18.90;58.70;;;;;;5060401;28;20046;-69
2022/11/06 07:49:12;;;;;;;5.38;1.42;;;19.00;58.80;;;;;;5059987;28;20048;-69
2022/11/06 07:51:38;;;;;;;5.78;1.60;;;18.90;58.70;;;;;;5059919;28;20075;-69
2022/11/06 07:54:04;;;;;;;2.65;1.17;;;18.90;58.70;;;;;;5052323;28;20059;-70
2022/11/06 07:56:29;;;;;;;3.33;1.35;;;18.90;58.70;;;;;;5056726;28;20075;-70
2022/11/06 07:58:55;;;;;;;4.80;1.40;;;18.90;58.80;;;;;;5063223;28;20209;-69
2022/11/06 08:01:20;;;;;;;3.70;1.30;;;19.00;58.80;;;;;;5058609;28;20028;-70
2022/11/06 08:03:46;;;;;;;1.85;1.38;;;19.00;58.90;;;;;;5056588;28;20044;-68
2022/11/06 08:06:12;;;;;;;3.70;1.52;;;19.00;58.90;;;;;;5055493;28;20049;-68
2022/11/06 08:08:38;;;;;;;5.20;1.88;;;19.00;58.80;;;;;;5054666;28;20039;-68
2022/11/06 08:11:09;;;;;;;6.65;1.90;;;19.00;58.90;;;;;;5063366;28;20507;-68
2022/11/06 08:13:35;;;;;;;4.00;1.55;;;19.00;58.80;;;;;;5053065;28;20044;-67
2022/11/06 08:16:09;;;;;;;4.90;1.60;;;19.00;58.70;;;;;;5061910;28;20082;-68
2022/11/06 08:18:35;;;;;;;6.95;1.40;;;19.00;58.80;;;;;;5052274;28;20044;-68
2022/11/06 08:21:01;;;;;;;2.92;1.48;;;19.00;58.80;;;;;;5057119;28;21178;-70
2022/11/06 08:23:27;;;;;;;8.27;1.85;;;19.00;58.80;;;;;;5055190;28;20562;-71
2022/11/06 08:25:58;;;;;;;6.15;1.70;;;19.00;59.00;;;;;;5042980;28;20094;-73
2022/11/06 08:28:25;;;;;;;6.40;1.80;;;19.00;59.20;;;;;;5059090;28;20032;-77
2022/11/06 08:30:51;;;;;;;7.78;1.70;;;19.10;59.40;;;;;;5044644;28;20376;-72
2022/11/06 08:33:17;;;;;;;7.95;1.80;;;19.00;59.40;;;;;;5055099;28;20048;-71
2022/11/06 08:35:43;;;;;;;9.23;1.80;;;19.00;59.60;;;;;;5033858;28;20048;-71
2022/11/06 08:38:08;;;;;;;8.75;1.60;;;19.10;59.70;;;;;;5057390;28;20057;-71
2022/11/06 08:40:37;;;;;;;6.60;1.75;;;19.10;59.80;;;;;;5062560;28;20135;-73
2022/11/06 08:43:08;;;;;;;9.52;1.90;;;19.10;59.90;;;;;;5052358;28;20060;-70
2022/11/06 08:45:39;;;;;;;6.57;2.13;;;19.10;59.90;;;;;;5058834;28;20052;-73
2022/11/06 08:48:06;;;;;;;4.53;2.00;;;19.10;59.80;;;;;;5054864;28;20120;-70
2022/11/06 08:50:33;;;;;;;7.88;1.88;;;19.10;59.80;;;;;;5058065;28;20094;-73
2022/11/06 08:53:02;;;;;;;6.03;2.10;;;19.10;59.80;;;;;;5058488;28;20041;-76
2022/11/06 08:55:29;;;;;;;6.90;1.80;;;19.10;59.80;;;;;;5054646;28;20040;-72
2022/11/06 08:57:55;;;;;;;7.88;1.85;;;19.10;59.70;;;;;;5083823;27;20048;-72
2022/11/06 09:00:21;;;;;;;5.22;1.60;;;19.10;59.70;;;;;;5061260;28;20049;-73
2022/11/06 09:02:47;;;;;;;7.60;1.88;;;19.20;59.70;;;;;;5082532;27;20048;-71
2022/11/06 09:05:13;;;;;;;5.65;1.63;;;19.10;59.60;;;;;;5054348;28;20500;-74
2022/11/06 09:07:41;;;;;;;3.70;1.98;;;19.10;59.60;;;;;;5055385;28;20056;-71
2022/11/06 09:10:07;;;;;;;5.25;1.80;;;19.10;59.60;;;;;;5051942;28;20036;-75
2022/11/06 09:12:33;;;;;;;3.20;1.70;;;19.20;59.60;;;;;;5063135;28;20036;-71
2022/11/06 09:14:59;;;;;;;10.95;2.00;;;19.20;59.50;;;;;;5050895;28;20074;-70
2022/11/06 09:17:24;;;;;;;4.65;1.70;;;19.20;59.50;;;;;;5048516;28;20055;-73
2022/11/06 09:19:53;;;;;;;6.07;1.85;;;19.10;59.50;;;;;;5053847;28;20051;-72
2022/11/06 09:22:19;;;;;;;5.05;1.50;;;19.10;59.50;;;;;;5055569;28;20036;-71
2022/11/06 09:24:44;;;;;;;5.18;1.75;;;19.20;59.50;;;;;;5049086;28;20037;-74
2022/11/06 09:27:10;;;;;;;7.75;1.83;;;19.20;59.50;;;;;;5045076;28;20127;-72
2022/11/06 09:29:39;;;;;;;5.63;1.67;;;19.20;59.40;;;;;;5058871;28;20044;-73
2022/11/06 09:32:09;;;;;;;7.60;1.83;;;19.20;59.40;;;;;;5053276;28;20040;-74
2022/11/06 09:34:34;;;;;;;4.57;1.33;;;19.20;59.40;;;;;;5051234;28;20028;-73
2022/11/06 09:37:03;;;;;;;8.48;1.67;;;19.30;59.40;;;;;;5053488;28;21574;-72
2022/11/06 09:39:29;;;;;;;6.45;1.65;;;19.20;59.40;;;;;;5066558;28;20052;-72
2022/11/06 09:42:05;;;;;;;8.27;1.63;;;19.20;59.40;;;;;;5051187;28;20040;-71
2022/11/06 09:44:33;;;;;;;5.95;1.75;;;19.20;59.40;;;;;;5051450;28;20131;-71
2022/11/06 09:47:02;;;;;;;;;;;19.20;59.40;;;;;;5033501;28;20071;-72
2022/11/06 09:49:31;;;;;;;4.55;1.50;;;19.30;59.60;;;;;;5047245;28;19924;-71
2022/11/06 09:52:01;;;;;;;8.23;1.90;;;19.30;59.50;;;;;;5057158;28;20077;-70
2022/11/06 09:54:35;;;;;;;7.07;1.65;;;19.30;59.50;;;;;;5048682;28;20045;-70
2022/11/06 09:57:12;;;;;;;5.10;1.95;;;19.30;59.60;;;;;;5052727;28;20055;-71
2022/11/06 09:59:40;;;;;;;7.72;1.90;;;19.40;59.60;;;;;;5054458;28;20162;-68
2022/11/06 10:02:34;;;;;;;5.15;1.70;;;19.30;59.50;;;;;;5061216;28;20087;-70
2022/11/06 10:05:12;;;;;;;3.92;1.60;;;19.40;59.90;;;;;;5054296;28;20513;-71
2022/11/06 10:07:42;;;;;;;;;;;19.40;59.60;;;;;;5058709;28;20086;-71
2022/11/06 10:10:18;;;;;;;5.95;1.73;;;19.40;59.60;;;;;;5049511;28;19957;-71
2022/11/06 10:12:50;;;;;;;6.70;1.95;;;19.40;59.50;;;;;;5055453;28;20045;-71
2022/11/06 10:15:25;;;;;;;7.85;2.08;;;19.40;59.40;;;;;;5056808;28;20117;-72
2022/11/06 10:17:57;;;;;;;6.63;1.80;;;19.40;59.40;;;;;;5067036;28;20109;-69
2022/11/06 10:20:31;;;;;;;6.13;1.55;;;19.40;59.30;;;;;;5059532;28;20048;-69
2022/11/06 10:23:19;;;;;;;6.55;2.20;;;19.40;59.30;;;;;;5054835;28;20612;-70
2022/11/06 10:25:52;;;;;;;5.32;2.10;;;19.40;59.30;;;;;;5059756;28;20866;-71
2022/11/06 10:28:46;;;;;;;5.03;1.70;;;19.40;59.30;;;;;;5059530;28;20037;-70
2022/11/06 10:31:49;;;;;;;7.70;1.70;;;19.40;59.30;;;;;;5056929;28;20071;-70
2022/11/06 10:34:20;;;;;;;9.40;1.60;;;19.30;60.00;;;;;;5056361;28;20083;-70
2022/11/06 10:36:50;;;;;;;6.93;1.92;;;19.40;59.40;;;;;;5057091;28;20101;-68
2022/11/06 10:39:21;;;;;;;4.72;2.00;;;19.40;59.40;;;;;;5059516;28;20155;-70
2022/11/06 10:41:52;;;;;;;10.77;2.05;;;19.30;59.50;;;;;;5057559;28;20380;-70
2022/11/06 10:44:26;;;;;;;5.32;1.63;;;19.30;59.80;;;;;;5037916;28;20730;-68
2022/11/06 10:46:59;;;;;;;5.00;1.80;;;19.30;59.90;;;;;;5057254;28;20036;-72
2022/11/06 10:49:43;;;;;;;9.60;1.67;;;19.40;60.00;;;;;;5057713;28;20629;-70
2022/11/06 10:52:23;;;;;;;5.68;1.73;;;19.40;60.10;;;;;;5060775;28;20115;-71
2022/11/06 10:55:24;;;;;;;5.72;1.55;;;19.50;60.30;;;;;;5066728;28;20044;-70
2022/11/06 10:58:17;;;;;;;8.95;1.52;;;19.40;60.30;;;;;;5087180;27;20084;-70
2022/11/06 11:00:43;;;;;;;4.43;1.52;;;19.40;60.30;;;;;;5086024;27;20135;-69
2022/11/06 11:03:26;;;;;;;3.33;1.50;;;19.50;60.40;;;;;;5053255;28;20483;-71
2022/11/06 11:05:54;;;;;;;4.50;1.50;;;19.50;60.40;;;;;;5055280;28;20056;-71
2022/11/06 11:08:44;;;;;;;7.25;1.77;;;19.50;60.40;;;;;;5088175;27;20048;-71
2022/11/06 11:11:12;;;;;;;5.75;1.60;;;19.50;60.40;;;;;;5056847;28;20079;-72
2022/11/06 11:13:42;;;;;;;3.10;1.35;;;19.50;60.40;;;;;;5056223;28;20079;-72
2022/11/06 11:16:21;;;;;;;8.77;1.52;;;19.50;60.50;;;;;;5039829;28;20072;-71
2022/11/06 11:18:47;;;;;;;7.55;1.70;;;19.50;60.50;;;;;;5054990;28;20044;-70
2022/11/06 11:21:18;;;;;;;3.90;1.60;;;19.50;60.50;;;;;;5059218;28;20048;-71
2022/11/06 11:23:45;;;;;;;4.28;1.42;;;19.50;60.50;;;;;;5059430;28;20534;-71
2022/11/06 11:26:23;;;;;;;3.15;1.60;;;19.50;61.30;;;;;;5058949;28;21868;-71
2022/11/06 11:28:56;;;;;;;3.00;1.50;;;19.50;60.40;;;;;;5054367;28;20041;-72
2022/11/06 11:31:31;;;;;;;4.15;1.58;;;19.50;60.40;;;;;;5055632;28;20134;-70
2022/11/06 11:34:01;;;;;;;4.20;1.60;;;19.60;60.50;;;;;;5050777;28;20148;-70
2022/11/06 11:36:51;;;;;;;4.82;1.38;;;19.50;60.40;;;;;;5058090;28;20459;-72
2022/11/06 11:39:19;;;;;;;5.53;1.50;;;19.50;60.40;;;;;;5066653;28;20081;-71
2022/11/06 11:41:45;;;;;;;14.50;1.48;;;19.50;60.40;;;;;;5057460;28;20094;-72
2022/11/06 11:44:10;;;;;;;7.57;1.38;;;19.50;60.50;;;;;;5053435;28;20044;-74
2022/11/06 11:46:48;;;;;;;9.07;1.60;;;19.50;60.50;;;;;;5038993;28;20067;-72
2022/11/06 11:49:34;;;;;;;;;;;19.50;60.50;;;;;;5059447;28;20056;-72
2022/11/06 11:52:03;;;;;;;4.45;1.27;;;19.50;60.40;;;;;;5057268;28;20533;-73
2022/11/06 11:54:36;;;;;;;10.40;1.85;;;19.50;60.40;;;;;;5055560;28;20040;-73
2022/11/06 11:57:04;;;;;;;5.40;1.48;;;19.40;60.30;;;;;;5056668;28;20109;-73
2022/11/06 11:59:42;;;;;;;10.38;1.80;;;19.40;60.30;;;;;;5057778;28;20846;-75
2022/11/06 12:02:26;;;;;;;7.00;1.58;;;19.40;60.30;;;;;;5042471;28;20090;-72
2022/11/06 12:04:57;;;;;;;3.45;1.50;;;19.40;60.20;;;;;;5053557;28;20506;-72
2022/11/06 12:07:28;;;;;;;5.53;1.58;;;19.40;60.30;;;;;;5042444;28;20048;-74
2022/11/06 12:09:54;;;;;;;11.50;1.40;;;19.40;60.30;;;;;;5055126;28;20059;-72
2022/11/06 12:12:22;;;;;;;7.75;1.38;;;19.40;60.30;;;;;;5057084;28;20052;-72
2022/11/06 12:15:02;;;;;;;;;;;19.40;60.20;;;;;;5040579;28;20102;-72
2022/11/06 12:17:29;;;;;;;3.70;1.38;;;19.40;60.20;;;;;;5069957;28;19924;-74
2022/11/06 12:19:59;;;;;;;1.50;1.13;;;19.40;60.20;;;;;;5054789;28;20044;-73
2022/11/06 12:22:32;;;;;;;5.78;1.50;;;19.40;60.20;;;;;;5055823;28;20062;-72
2022/11/06 12:25:02;;;;;;;3.90;1.58;;;19.40;60.20;;;;;;5054261;28;20047;-72
2022/11/06 12:27:35;;;;;;;6.18;1.40;;;19.40;60.20;;;;;;5042181;28;20071;-73
2022/11/06 12:30:28;;;;;;;4.32;1.50;;;19.40;60.20;;;;;;5070959;28;20056;-72
2022/11/06 12:33:19;;;;;;;1.85;1.25;;;19.40;60.10;;;;;;5052586;28;20242;-74
2022/11/06 12:35:49;;;;;;;3.78;1.58;;;19.40;60.10;;;;;;5057756;28;20048;-72
2022/11/06 12:38:24;;;;;;;3.80;1.45;;;19.40;60.10;;;;;;5055463;28;20051;-74
2022/11/06 12:41:05;;;;;;;2.55;1.10;;;19.30;60.00;;;;;;5055512;28;20402;-75
2022/11/06 12:43:39;;;;;;;5.07;1.50;;;19.40;60.00;;;;;;5057478;28;20138;-76
2022/11/06 12:46:23;;;;;;;6.78;1.58;;;19.40;60.00;;;;;;5055753;28;20084;-75
2022/11/06 12:48:55;;;;;;;3.55;1.48;;;19.40;60.00;;;;;;5054472;28;20514;-74
2022/11/06 12:51:46;;;;;;;4.35;1.30;;;19.40;60.00;;;;;;5068175;28;20175;-71
2022/11/06 12:54:15;;;;;;;3.50;1.33;;;19.40;60.40;;;;;;5045967;28;20143;-73
2022/11/06 12:56:59;;;;;;;;;;;19.40;60.00;;;;;;5047248;28;20480;-66
2022/11/06 12:59:28;;;;;;;5.13;1.40;;;19.40;60.00;;;;;;5071108;28;19996;-71
2022/11/06 13:02:44;;;;;;;4.45;1.17;;;19.40;60.40;;;;;;5040284;28;20040;-70
2022/11/06 13:05:54;;;;;;;3.70;1.45;;;19.40;61.10;;;;;;4991250;28;20723;-70
2022/11/06 13:08:43;;;;;;;7.18;1.90;;;19.40;61.20;;;;;;5056252;28;20064;-70
2022/11/06 13:11:19;;;;;;;3.53;1.38;;;19.50;61.70;;;;;;5061014;28;20737;-70
2022/11/06 13:14:16;;;;;;;2.97;1.20;;;19.50;61.70;;;;;;5048909;28;20139;-70
2022/11/06 13:17:07;;;;;;;9.13;1.70;;;19.50;62.10;;;;;;5058177;28;20105;-72
2022/11/06 13:19:59;;;;;;;7.57;1.40;;;19.50;62.40;;;;;;5086394;27;20043;-73
2022/11/06 13:22:35;;;;;;;4.15;1.10;;;19.50;62.30;;;;;;5058209;28;20053;-72